Time;durP1;ratioP1;P1;durP2;ratioP2;P2;SDS_P1;SDS_P2;PMS_P1;PMS_P2;Temp;Humidity;BMP_temperature;BMP_pressure;BME280_temperature;BME280_humidity;BME280_pressure;Samples;Min_cycle;Max_cycle;Signal;HPM_P1;HPM_P2
2022/09/24 00:00:44;;;;;;;3.37;2.70;;;;;;;9.65;nan;-24086.72;5033048;28;20179;-65
2022/09/24 00:03:10;;;;;;;2.97;2.30;;;;;;;9.65;nan;-24086.72;5032384;28;20226;-68
2022/09/24 00:05:38;;;;;;;2.87;2.43;;;;;;;9.56;nan;-24084.16;5032971;28;20172;-67
2022/09/24 00:08:07;;;;;;;4.63;3.03;;;;;;;9.51;nan;-24082.59;5032315;28;20179;-68
2022/09/24 00:10:41;;;;;;;2.63;2.43;;;;;;;9.46;nan;-24081.19;5032830;28;20662;-69
2022/09/24 00:13:10;;;;;;;3.03;2.30;;;;;;;9.01;nan;-24068.63;5032731;28;20569;-64
2022/09/24 00:15:41;;;;;;;4.53;3.07;;;;;;;9.07;nan;-24070.31;5032524;28;20206;-68
2022/09/24 00:18:10;;;;;;;4.20;3.30;;;;;;;9.39;nan;-24079.34;5032134;28;20179;-66
2022/09/24 00:20:37;;;;;;;5.27;3.00;;;;;;;9.16;nan;-24072.84;5032303;28;20258;-68
2022/09/24 00:23:03;;;;;;;3.33;2.60;;;;;;;9.18;nan;-24073.56;5032548;28;20541;-65
2022/09/24 00:28:13;;;;;;;2.47;2.07;;;;;;;9.13;nan;-24072.16;5032222;28;20167;-68
2022/09/24 00:30:41;;;;;;;3.57;2.53;;;;;;;9.21;nan;-24074.25;5032461;28;20187;-67
2022/09/24 00:33:06;;;;;;;2.83;2.43;;;;;;;8.53;nan;-24055.16;5032810;28;20264;-66
2022/09/24 00:35:34;;;;;;;4.57;2.73;;;;;;;9.08;nan;-24070.72;5032528;28;20250;-66
2022/09/24 00:37:59;;;;;;;2.50;2.03;;;;;;;8.95;nan;-24066.91;5031428;28;20551;-67
2022/09/24 00:40:34;;;;;;;2.73;2.33;;;;;;;8.61;nan;-24057.56;5031643;28;20187;-66
2022/09/24 00:42:59;;;;;;;2.50;2.30;;;;;;;8.81;nan;-24063.25;5031750;28;20547;-66
2022/09/24 00:45:28;;;;;;;2.90;2.40;;;;;;;8.91;nan;-24065.78;5031760;28;20183;-68
2022/09/24 00:47:54;;;;;;;3.17;2.43;;;;;;;8.75;nan;-24061.41;5031514;28;20175;-70
2022/09/24 00:50:26;;;;;;;4.57;2.77;;;;;;;8.83;nan;-24063.66;5031974;28;20282;-67
2022/09/24 00:53:06;;;;;;;3.83;2.57;;;;;;;8.76;nan;-24061.81;5032058;28;20182;-68
2022/09/24 00:55:34;;;;;;;2.77;2.43;;;;;;;8.53;nan;-24055.16;5031621;28;20207;-66
2022/09/24 00:58:04;;;;;;;2.67;2.17;;;;;;;8.62;nan;-24057.72;5032097;28;20218;-67
2022/09/24 01:00:31;;;;;;;4.50;2.80;;;;;;;8.32;nan;-24049.50;5031717;28;20166;-67
2022/09/24 01:03:04;;;;;;;3.30;2.17;;;;;;;8.60;nan;-24057.28;5031611;28;20219;-65
2022/09/24 01:05:30;;;;;;;2.90;2.10;;;;;;;8.48;nan;-24053.75;5030187;28;20176;-69
2022/09/24 01:07:56;;;;;;;2.63;1.90;;;;;;;8.37;nan;-24050.94;5032232;28;20187;-69
2022/09/24 01:10:47;;;;;;;3.20;2.40;;;;;;;7.76;nan;-24033.78;5030840;28;20206;-66
2022/09/24 01:13:45;;;;;;;2.40;2.20;;;;;;;8.44;nan;-24052.78;5031966;28;20274;-67
2022/09/24 01:16:34;;;;;;;2.70;2.17;;;;;;;7.88;nan;-24037.03;5030755;28;20194;-67
2022/09/24 01:19:16;;;;;;;2.43;2.03;;;;;;;8.15;nan;-24044.56;5031792;28;20176;-67
2022/09/24 01:21:49;;;;;;;2.77;1.93;;;;;;;8.17;nan;-24045.25;5031903;28;20198;-69
2022/09/24 01:24:24;;;;;;;4.77;2.73;;;;;;;8.57;nan;-24056.44;5029671;28;20561;-68
2022/09/24 01:26:56;;;;;;;3.43;2.33;;;;;;;8.48;nan;-24053.91;5032048;28;20167;-69
2022/09/24 01:29:29;;;;;;;2.50;2.27;;;;;;;8.35;nan;-24050.38;5031742;28;20164;-66
2022/09/24 01:32:08;;;;;;;3.07;2.40;;;;;;;8.24;nan;-24047.09;5031929;28;20175;-68
2022/09/24 01:34:46;;;;;;;3.07;2.40;;;;;;;7.92;nan;-24038.19;5031575;28;20179;-68
2022/09/24 01:37:16;;;;;;;2.30;2.10;;;;;;;7.83;nan;-24035.78;5029985;28;20191;-69
2022/09/24 01:39:45;;;;;;;2.77;2.37;;;;;;;8.15;nan;-24044.69;5033692;28;20779;-69
2022/09/24 01:42:13;;;;;;;2.43;2.23;;;;;;;7.84;nan;-24036.06;5036020;28;20179;-67
2022/09/24 01:44:43;;;;;;;2.03;1.90;;;;;;;7.41;nan;-24023.88;5035700;28;20179;-68
2022/09/24 01:47:13;;;;;;;3.30;2.43;;;;;;;7.49;nan;-24026.13;5035567;28;20205;-66
2022/09/24 01:49:39;;;;;;;2.47;2.27;;;;;;;7.83;nan;-24035.63;5035407;28;20294;-66
2022/09/24 01:52:12;;;;;;;3.00;2.70;;;;;;;7.58;nan;-24028.53;5034869;28;20262;-69
2022/09/24 01:54:41;;;;;;;3.00;2.70;;;;;;;7.91;nan;-24038.03;5035639;28;20183;-66
2022/09/24 01:57:14;;;;;;;2.00;1.80;;;;;;;7.55;nan;-24027.97;5035378;28;20199;-68
2022/09/24 02:00:04;;;;;;;2.80;2.30;;;;;;;7.83;nan;-24035.63;5035049;28;20166;-69
2022/09/24 02:02:59;;;;;;;2.17;1.90;;;;;;;7.98;nan;-24039.88;5034756;28;20223;-68
2022/09/24 02:05:37;;;;;;;4.20;2.70;;;;;;;7.87;nan;-24036.75;5032842;28;20677;-68
2022/09/24 02:08:05;;;;;;;2.63;2.40;;;;;;;7.76;nan;-24033.66;5034893;28;20175;-69
2022/09/24 02:10:37;;;;;;;2.63;2.17;;;;;;;7.59;nan;-24028.81;5033573;28;20613;-69
2022/09/24 02:13:06;;;;;;;1.77;1.67;;;;;;;7.10;nan;-24015.34;5034867;28;20198;-67
2022/09/24 02:15:36;;;;;;;3.27;2.43;;;;;;;7.62;nan;-24029.69;5034881;28;20163;-65
2022/09/24 02:18:16;;;;;;;4.00;2.10;;;;;;;7.72;nan;-24032.50;5033021;28;20548;-67
2022/09/24 02:20:42;;;;;;;2.77;1.93;;;;;;;7.55;nan;-24027.97;5034382;28;20247;-65
2022/09/24 02:23:10;;;;;;;3.43;2.17;;;;;;;7.71;nan;-24032.22;5034395;28;20245;-67
2022/09/24 02:25:49;;;;;;;2.40;2.13;;;;;;;7.72;nan;-24032.50;5034578;28;20572;-66
2022/09/24 02:28:16;;;;;;;4.27;2.97;;;;;;;7.77;nan;-24034.06;5034468;28;20254;-66
2022/09/24 02:30:50;;;;;;;2.93;2.30;;;;;;;7.79;nan;-24034.50;5034547;28;20670;-67
2022/09/24 02:36:01;;;;;;;2.33;1.83;;;;;;;8.00;nan;-24040.59;5035026;28;20198;-64
2022/09/24 02:38:26;;;;;;;3.20;2.30;;;;;;;7.67;nan;-24031.25;5041836;28;20172;-65
2022/09/24 02:40:53;;;;;;;2.20;2.00;;;;;;;7.92;nan;-24038.19;5034100;28;20167;-67
2022/09/24 02:43:18;;;;;;;3.47;2.67;;;;;;;7.87;nan;-24036.75;5034747;28;20191;-67
2022/09/24 02:45:44;;;;;;;3.00;2.00;;;;;;;7.55;nan;-24027.84;5034160;28;20627;-66
2022/09/24 02:48:09;;;;;;;2.03;1.90;;;;;;;7.40;nan;-24023.72;5033902;28;20179;-66
2022/09/24 02:50:35;;;;;;;2.43;2.23;;;;;;;7.74;nan;-24033.22;5032729;28;20642;-66
2022/09/24 02:53:00;;;;;;;3.50;2.57;;;;;;;7.37;nan;-24022.88;5034530;28;20705;-68
2022/09/24 02:55:26;;;;;;;2.67;2.27;;;;;;;7.68;nan;-24031.38;5033965;28;20187;-68
2022/09/24 02:57:52;;;;;;;2.43;2.10;;;;;;;7.67;nan;-24031.09;5041922;28;20709;-67
2022/09/24 03:00:19;;;;;;;2.47;1.80;;;;;;;7.33;nan;-24021.75;5019705;28;20184;-68
2022/09/24 03:02:46;;;;;;;1.83;1.70;;;;;;;7.67;nan;-24031.25;4996597;28;20219;-68
2022/09/24 03:05:12;;;;;;;5.13;2.70;;;;;;;7.35;nan;-24022.16;5033448;28;20282;-68
2022/09/24 03:07:38;;;;;;;4.10;2.60;;;;;;;7.67;nan;-24031.09;5033657;28;20198;-67
2022/09/24 03:10:03;;;;;;;2.37;2.13;;;;;;;7.57;nan;-24028.41;5033802;28;20195;-68
2022/09/24 03:12:29;;;;;;;6.63;2.13;;;;;;;7.25;nan;-24019.47;5033639;28;20168;-67
2022/09/24 03:14:54;;;;;;;2.20;2.00;;;;;;;7.62;nan;-24029.81;5033949;28;21229;-69
2022/09/24 03:17:20;;;;;;;2.87;2.00;;;;;;;7.25;nan;-24019.47;5033170;28;20309;-69
2022/09/24 03:19:45;;;;;;;2.87;2.03;;;;;;;7.17;nan;-24017.19;5042373;28;20195;-67
2022/09/24 03:22:10;;;;;;;2.80;2.30;;;;;;;7.55;nan;-24027.84;5020864;28;20211;-67
2022/09/24 03:24:36;;;;;;;3.60;2.30;;;;;;;7.49;nan;-24026.13;5013354;28;20644;-69
2022/09/24 03:27:01;;;;;;;2.43;2.23;;;;;;;7.15;nan;-24016.63;5031927;28;20217;-66
2022/09/24 03:32:11;;;;;;;2.90;2.40;;;;;;;7.57;nan;-24028.25;5033197;28;20170;-66
2022/09/24 03:34:36;;;;;;;2.30;2.10;;;;;;;7.34;nan;-24022.03;5033447;28;20172;-67
2022/09/24 03:37:02;;;;;;;3.50;2.53;;;;;;;7.17;nan;-24017.19;5033604;28;20203;-68
2022/09/24 03:39:27;;;;;;;2.47;2.13;;;;;;;7.50;nan;-24026.56;5033529;28;20524;-67
2022/09/24 03:41:53;;;;;;;2.67;2.03;;;;;;;7.25;nan;-24019.34;5033430;28;20182;-66
2022/09/24 03:44:18;;;;;;;3.43;2.47;;;;;;;7.06;nan;-24014.22;5033526;28;20174;-67
2022/09/24 03:46:44;;;;;;;2.30;2.10;;;;;;;7.17;nan;-24017.06;5030422;28;20179;-64
2022/09/24 03:49:09;;;;;;;5.00;2.60;;;;;;;7.26;nan;-24019.63;5040106;28;20182;-67
2022/09/24 03:51:35;;;;;;;4.30;2.07;;;;;;;7.20;nan;-24018.06;5012675;28;20203;-65
2022/09/24 03:54:00;;;;;;;3.20;2.60;;;;;;;7.54;nan;-24027.69;5037156;28;20186;-66
2022/09/24 03:56:26;;;;;;;3.20;1.87;;;;;;;7.41;nan;-24023.88;5033439;28;20241;-66
2022/09/24 03:58:51;;;;;;;3.27;2.57;;;;;;;7.47;nan;-24025.72;5040811;28;20186;-67
2022/09/24 04:01:20;;;;;;;2.73;2.13;;;;;;;7.49;nan;-24026.28;5025765;28;20258;-68
2022/09/24 04:03:46;;;;;;;2.50;1.70;;;;;;;7.05;nan;-24013.94;5040921;28;20218;-68
2022/09/24 04:06:11;;;;;;;2.40;2.17;;;;;;;7.33;nan;-24021.75;5038525;28;20178;-67
2022/09/24 04:08:37;;;;;;;3.43;2.33;;;;;;;7.03;nan;-24013.22;5040563;28;20660;-68
2022/09/24 04:11:02;;;;;;;2.37;1.77;;;;;;;7.04;nan;-24013.66;5027364;28;20328;-66
2022/09/24 04:13:28;;;;;;;2.80;2.10;;;;;;;7.31;nan;-24021.03;5038280;28;20186;-66
2022/09/24 04:15:53;;;;;;;2.60;1.87;;;;;;;6.89;nan;-24009.41;5035241;28;20186;-69
2022/09/24 04:18:19;;;;;;;2.10;1.83;;;;;;;7.41;nan;-24024.00;5034626;28;20182;-66
2022/09/24 04:20:45;;;;;;;4.40;2.17;;;;;;;6.98;nan;-24011.94;5038616;28;20179;-69
2022/09/24 04:23:11;;;;;;;3.27;2.00;;;;;;;7.13;nan;-24015.94;5030780;28;20229;-66
2022/09/24 04:25:39;;;;;;;3.87;2.60;;;;;;;7.23;nan;-24018.75;5031358;28;20261;-65
2022/09/24 04:28:06;;;;;;;4.17;2.47;;;;;;;7.28;nan;-24020.31;5037578;28;20179;-69
2022/09/24 04:30:33;;;;;;;2.70;2.07;;;;;;;6.87;nan;-24008.69;5040896;28;20241;-68
2022/09/24 04:32:59;;;;;;;1.90;1.80;;;;;;;7.14;nan;-24016.34;5025276;28;20198;-66
2022/09/24 04:35:27;;;;;;;2.23;2.03;;;;;;;7.35;nan;-24022.16;5039034;28;20185;-67
2022/09/24 04:37:53;;;;;;;2.73;2.10;;;;;;;7.25;nan;-24019.47;5029494;28;20292;-68
2022/09/24 04:40:18;;;;;;;2.00;1.80;;;;;;;7.59;nan;-24028.81;5037065;28;20789;-66
2022/09/24 04:42:45;;;;;;;3.00;2.50;;;;;;;7.31;nan;-24021.16;5033492;28;20187;-67
2022/09/24 04:45:12;;;;;;;2.07;1.90;;;;;;;7.75;nan;-24033.50;5038480;28;20537;-67
2022/09/24 04:47:39;;;;;;;3.33;2.53;;;;;;;7.78;nan;-24034.22;5039628;28;20197;-67
2022/09/24 04:50:07;;;;;;;2.90;2.17;;;;;;;7.63;nan;-24029.97;5030798;28;20241;-69
2022/09/24 04:52:32;;;;;;;2.23;2.03;;;;;;;7.99;nan;-24040.31;5041160;28;20178;-66
2022/09/24 04:55:01;;;;;;;3.57;2.53;;;;;;;8.21;nan;-24046.41;5033385;28;20237;-66
2022/09/24 04:57:33;;;;;;;3.07;2.00;;;;;;;8.37;nan;-24050.78;5040169;28;20182;-67
2022/09/24 05:00:11;;;;;;;4.80;2.80;;;;;;;8.53;nan;-24055.31;5015296;28;20303;-67
2022/09/24 05:02:38;;;;;;;3.17;2.40;;;;;;;8.30;nan;-24048.81;5028600;28;20223;-65
2022/09/24 05:05:04;;;;;;;3.77;2.90;;;;;;;8.58;nan;-24056.59;5036852;28;20205;-69
2022/09/24 05:07:30;;;;;;;3.93;2.47;;;;;;;8.57;nan;-24056.31;5035803;28;20179;-70
2022/09/24 05:09:56;;;;;;;3.07;2.40;;;;;;;9.03;nan;-24069.19;5018856;28;20222;-71
2022/09/24 05:12:21;;;;;;;3.17;2.33;;;;;;;9.25;nan;-24075.41;5040387;28;20187;-67
2022/09/24 05:14:47;;;;;;;3.13;2.83;;;;;;;9.11;nan;-24071.59;5042422;28;20659;-67
2022/09/24 05:17:13;;;;;;;2.67;1.93;;;;;;;9.28;nan;-24076.25;5033191;28;20186;-67
2022/09/24 05:19:38;;;;;;;2.77;2.20;;;;;;;9.54;nan;-24083.59;5016365;28;20180;-66
2022/09/24 05:22:04;;;;;;;2.83;2.17;;;;;;;9.68;nan;-24087.56;5021583;28;20237;-67
2022/09/24 05:24:29;;;;;;;2.73;2.37;;;;;;;9.79;nan;-24090.53;5044083;28;20234;-67
2022/09/24 05:27:10;;;;;;;2.50;2.03;;;;;;;9.84;nan;-24091.78;5027003;28;20191;-67
2022/09/24 05:29:40;;;;;;;3.07;2.27;;;;;;;10.03;nan;-24097.16;5016389;28;20198;-68
2022/09/24 05:32:07;;;;;;;2.90;2.27;;;;;;;10.38;nan;-24107.03;5031917;28;20257;-66
2022/09/24 05:34:33;;;;;;;3.57;2.20;;;;;;;10.39;nan;-24107.31;5035589;28;20182;-67
2022/09/24 05:37:00;;;;;;;4.20;2.87;;;;;;;10.97;nan;-24123.41;5035350;28;20172;-66
2022/09/24 05:39:26;;;;;;;3.07;2.13;;;;;;;11.19;nan;-24129.47;5035718;28;20172;-66
2022/09/24 05:41:51;;;;;;;2.40;2.20;;;;;;;11.35;nan;-24134.13;5035649;28;20179;-65
2022/09/24 05:44:19;;;;;;;6.23;2.30;;;;;;;11.53;nan;-24139.19;5035554;28;20171;-68
2022/09/24 05:46:45;;;;;;;4.13;2.87;;;;;;;11.63;nan;-24141.72;5035364;28;20214;-65
2022/09/24 05:49:11;;;;;;;3.03;2.07;;;;;;;11.66;nan;-24142.72;5035446;28;20647;-67
2022/09/24 05:51:36;;;;;;;3.13;2.40;;;;;;;11.48;nan;-24137.78;5035493;28;20718;-68
2022/09/24 05:54:02;;;;;;;4.22;2.67;;;;;;;11.76;nan;-24145.53;5035596;28;20199;-65
2022/09/24 05:56:27;;;;;;;3.35;2.40;;;;;;;11.82;nan;-24147.09;5035323;28;20553;-66
2022/09/24 05:58:53;;;;;;;2.70;1.90;;;;;;;12.44;nan;-24164.41;5035120;28;20603;-67
2022/09/24 06:01:19;;;;;;;4.38;2.40;;;;;;;12.40;nan;-24163.41;5035355;28;20202;-68
2022/09/24 06:03:44;;;;;;;3.85;2.90;;;;;;;12.93;nan;-24177.91;5035510;28;20305;-69
2022/09/24 06:06:10;;;;;;;2.25;2.05;;;;;;;12.73;nan;-24172.41;5035219;28;20172;-67
2022/09/24 06:08:35;;;;;;;3.25;2.38;;;;;;;12.96;nan;-24178.75;5035305;28;20218;-67
2022/09/24 06:11:04;;;;;;;4.05;2.38;;;;;;;13.03;nan;-24180.84;5034885;28;20286;-68
2022/09/24 06:13:30;;;;;;;1.95;1.75;;;;;;;13.26;nan;-24187.19;5034528;28;20642;-67
2022/09/24 06:16:04;;;;;;;3.50;2.03;;;;;;;13.73;nan;-24200.25;5019548;28;20179;-66
2022/09/24 06:18:33;;;;;;;1.98;1.70;;;;;;;13.69;nan;-24199.25;5034081;28;20186;-65
2022/09/24 06:21:08;;;;;;;2.90;1.90;;;;;;;14.19;nan;-24213.00;5034390;28;20167;-66
2022/09/24 06:23:35;;;;;;;2.67;1.90;;;;;;;14.14;nan;-24211.75;5032989;28;20697;-65
2022/09/24 06:26:01;;;;;;;3.33;2.33;;;;;;;14.40;nan;-24218.91;5033676;28;20517;-66
2022/09/24 06:28:26;;;;;;;2.47;1.85;;;;;;;14.63;nan;-24225.22;5034231;28;20172;-65
2022/09/24 06:30:52;;;;;;;4.97;2.10;;;;;;;14.10;nan;-24210.63;5034087;28;20575;-66
2022/09/24 06:33:22;;;;;;;2.40;2.03;;;;;;;14.64;nan;-24225.34;5033993;28;20171;-66
2022/09/24 06:35:48;;;;;;;3.53;2.30;;;;;;;14.66;nan;-24225.91;5034058;28;20234;-67
2022/09/24 06:38:15;;;;;;;4.32;2.10;;;;;;;14.54;nan;-24222.84;5032046;28;20237;-66
2022/09/24 06:40:41;;;;;;;2.30;2.10;;;;;;;14.44;nan;-24220.03;5033866;28;20187;-64
2022/09/24 06:43:09;;;;;;;2.97;2.25;;;;;;;14.96;nan;-24234.31;5034238;28;20179;-65
2022/09/24 06:45:35;;;;;;;2.83;1.95;;;;;;;14.97;nan;-24234.59;5033873;28;20183;-66
2022/09/24 06:48:02;;;;;;;2.25;2.05;;;;;;;14.94;nan;-24233.91;5032415;28;20172;-65
2022/09/24 06:50:30;;;;;;;2.78;1.77;;;;;;;15.36;nan;-24245.53;5033512;28;20641;-66
2022/09/24 06:52:56;;;;;;;2.17;1.90;;;;;;;15.70;nan;-24254.91;5033566;28;20174;-68
2022/09/24 06:55:22;;;;;;;2.10;1.70;;;;;;;15.63;nan;-24252.94;5032560;28;20175;-65
2022/09/24 06:57:48;;;;;;;2.72;1.83;;;;;;;15.68;nan;-24254.22;5032253;28;20202;-68
2022/09/24 07:00:14;;;;;;;2.47;2.08;;;;;;;15.92;nan;-24260.94;5033381;28;20160;-64
2022/09/24 07:02:40;;;;;;;2.47;2.03;;;;;;;15.45;nan;-24248.06;5033327;28;20230;-65
2022/09/24 07:05:07;;;;;;;3.50;2.30;;;;;;;15.62;nan;-24252.69;5032675;28;20588;-65
2022/09/24 07:07:33;;;;;;;3.33;2.00;;;;;;;15.83;nan;-24258.56;5041984;28;20183;-65
2022/09/24 07:10:00;;;;;;;2.92;2.33;;;;;;;16.01;nan;-24263.31;5022470;28;20765;-66
2022/09/24 07:12:29;;;;;;;2.40;1.92;;;;;;;15.85;nan;-24259.13;4995622;28;20179;-66
2022/09/24 07:14:55;;;;;;;3.55;2.10;;;;;;;15.75;nan;-24256.31;5029589;28;20546;-65
2022/09/24 07:17:20;;;;;;;3.25;1.98;;;;;;;16.18;nan;-24268.06;5041510;28;20180;-65
2022/09/24 07:19:46;;;;;;;2.53;2.05;;;;;;;16.45;nan;-24275.47;5019153;28;20192;-66
2022/09/24 07:22:12;;;;;;;3.17;2.15;;;;;;;16.31;nan;-24271.69;5013164;28;20207;-65
2022/09/24 07:24:37;;;;;;;2.65;2.13;;;;;;;15.93;nan;-24261.06;5037744;28;20185;-65
2022/09/24 07:27:04;;;;;;;2.78;1.95;;;;;;;16.16;nan;-24267.66;5033458;28;20527;-65
2022/09/24 07:29:29;;;;;;;1.98;1.65;;;;;;;16.35;nan;-24272.81;5013110;28;20659;-65
2022/09/24 07:31:55;;;;;;;2.83;1.98;;;;;;;16.25;nan;-24270.03;5019158;28;20207;-65
2022/09/24 07:34:20;;;;;;;2.80;2.25;;;;;;;16.69;nan;-24282.31;5032960;28;20187;-66
2022/09/24 07:36:46;;;;;;;3.55;2.15;;;;;;;16.85;nan;-24286.66;5031937;28;20194;-67
2022/09/24 07:39:11;;;;;;;2.63;2.00;;;;;;;16.93;nan;-24288.75;5033498;28;20588;-68
2022/09/24 07:41:38;;;;;;;3.83;2.00;;;;;;;16.65;nan;-24281.22;5032705;28;20160;-68
2022/09/24 07:44:03;;;;;;;3.47;2.10;;;;;;;16.93;nan;-24288.88;5033063;28;20226;-66
2022/09/24 07:46:29;;;;;;;4.28;2.05;;;;;;;17.00;nan;-24290.84;5033196;28;20168;-66
2022/09/24 07:48:55;;;;;;;3.20;2.22;;;;;;;17.17;nan;-24295.44;5032563;28;20190;-67
2022/09/24 07:51:26;;;;;;;2.65;2.17;;;;;;;17.28;nan;-24298.53;5032743;28;20257;-68
2022/09/24 07:53:52;;;;;;;2.13;1.90;;;;;;;17.64;nan;-24308.44;5032657;28;20164;-67
2022/09/24 07:56:18;;;;;;;3.00;2.10;;;;;;;17.69;nan;-24309.69;5032687;28;20182;-67
2022/09/24 07:58:44;;;;;;;2.85;1.90;;;;;;;17.65;nan;-24308.84;5032256;28;20657;-67
2022/09/24 08:01:09;;;;;;;3.35;2.28;;;;;;;17.99;nan;-24318.06;5032474;28;20171;-66
2022/09/24 08:03:35;;;;;;;2.35;1.73;;;;;;;17.92;nan;-24316.09;5032475;28;20219;-66
2022/09/24 08:06:03;;;;;;;3.22;1.95;;;;;;;18.28;nan;-24326.13;5031631;28;20678;-67
2022/09/24 08:08:28;;;;;;;3.47;2.10;;;;;;;18.40;nan;-24329.34;5031972;28;20209;-64
2022/09/24 08:10:54;;;;;;;2.55;1.90;;;;;;;18.69;nan;-24337.44;5032141;28;20278;-69
2022/09/24 08:13:19;;;;;;;2.80;1.90;;;;;;;18.66;nan;-24336.59;5031842;28;20183;-65
2022/09/24 08:15:44;;;;;;;2.63;1.83;;;;;;;18.67;nan;-24336.72;5032099;28;20167;-64
2022/09/24 08:18:10;;;;;;;2.55;1.98;;;;;;;18.46;nan;-24331.00;5032101;28;20184;-67
2022/09/24 08:20:37;;;;;;;2.45;1.90;;;;;;;18.71;nan;-24337.84;5031453;28;20706;-66
2022/09/24 08:23:08;;;;;;;1.73;1.63;;;;;;;18.53;nan;-24332.97;5031847;28;20171;-66
2022/09/24 08:25:34;;;;;;;2.60;1.92;;;;;;;18.89;nan;-24342.84;5032003;28;20175;-66
2022/09/24 08:28:04;;;;;;;2.58;1.83;;;;;;;18.68;nan;-24337.16;5031794;28;20172;-67
2022/09/24 08:30:30;;;;;;;2.92;1.77;;;;;;;19.00;nan;-24345.91;5031441;28;20260;-65
2022/09/24 08:32:56;;;;;;;2.47;1.80;;;;;;;19.12;nan;-24349.25;5031976;28;20167;-67
2022/09/24 08:35:22;;;;;;;3.65;2.25;;;;;;;19.01;nan;-24346.19;5030783;28;20643;-67
2022/09/24 08:37:48;;;;;;;2.95;2.00;;;;;;;18.78;nan;-24339.78;5031930;28;20255;-66
2022/09/24 08:40:18;;;;;;;2.15;1.70;;;;;;;18.80;nan;-24340.50;5031249;28;20175;-68
2022/09/24 08:43:16;;;;;;;2.03;1.83;;;;;;;19.13;nan;-24349.41;5031456;28;20172;-66
2022/09/24 08:48:37;;;;;;;2.05;1.75;;;;;;;19.01;nan;-24346.06;5031847;28;20273;-68
2022/09/24 08:51:07;;;;;;;2.40;1.90;;;;;;;18.88;nan;-24342.56;5031475;28;20225;-68
2022/09/24 08:53:41;;;;;;;3.63;1.85;;;;;;;19.17;nan;-24350.66;5031493;28;20178;-67
2022/09/24 08:56:08;;;;;;;3.65;2.00;;;;;;;19.32;nan;-24354.69;5031914;28;20228;-68
2022/09/24 08:58:44;;;;;;;3.15;2.08;;;;;;;19.53;nan;-24360.53;5031482;28;20313;-68
2022/09/24 09:01:16;;;;;;;1.95;1.65;;;;;;;19.76;nan;-24366.78;5031314;28;20246;-68
2022/09/24 09:03:57;;;;;;;2.08;1.55;;;;;;;19.66;nan;-24364.16;5031761;28;20276;-70
2022/09/24 09:06:36;;;;;;;3.28;1.88;;;;;;;19.35;nan;-24355.66;5031730;28;20160;-66
2022/09/24 09:09:15;;;;;;;2.78;2.10;;;;;;;19.46;nan;-24358.59;5031101;28;20293;-74
2022/09/24 09:11:51;;;;;;;2.13;1.73;;;;;;;19.89;nan;-24370.41;5031467;28;20199;-66
2022/09/24 09:14:22;;;;;;;3.17;1.83;;;;;;;19.76;nan;-24366.78;5031316;28;20300;-68
2022/09/24 09:16:50;;;;;;;2.53;1.77;;;;;;;19.78;nan;-24367.34;5029847;28;20604;-68
2022/09/24 09:19:19;;;;;;;2.42;1.67;;;;;;;19.53;nan;-24360.38;5031194;28;20258;-68
2022/09/24 09:21:53;;;;;;;2.03;1.70;;;;;;;19.62;nan;-24362.91;5030966;28;20649;-69
2022/09/24 09:24:25;;;;;;;2.45;2.08;;;;;;;19.41;nan;-24357.19;5031393;28;20160;-67
2022/09/24 09:26:55;;;;;;;2.17;1.70;;;;;;;;;;5030782;28;20164;-67
2022/09/24 09:29:24;;;;;;;1.92;1.50;;;;;;;20.09;nan;-24375.81;5030790;28;20168;-68
2022/09/24 09:31:55;;;;;;;2.17;1.77;;;;;;;20.13;nan;-24377.06;5031827;28;20201;-68
2022/09/24 09:34:46;;;;;;;2.42;1.90;;;;;;;19.99;nan;-24373.19;5030367;28;20222;-66
2022/09/24 09:37:18;;;;;;;1.60;1.50;;;;;;;19.76;nan;-24366.78;5031251;28;20557;-67
2022/09/24 09:40:09;;;;;;;2.33;1.80;;;;;;;20.02;nan;-24373.88;5031415;28;20175;-66
2022/09/24 09:42:39;;;;;;;2.38;1.92;;;;;;;20.23;nan;-24379.72;5027945;28;20666;-68
2022/09/24 09:45:34;;;;;;;1.85;1.60;;;;;;;19.99;nan;-24373.03;5030929;28;20581;-67
2022/09/24 09:48:02;;;;;;;1.33;1.23;;;;;;;19.43;nan;-24357.75;5031051;28;20234;-66
2022/09/24 09:50:35;;;;;;;2.50;1.45;;;;;;;20.04;nan;-24374.56;5030921;28;20231;-67
2022/09/24 09:53:03;;;;;;;1.63;1.52;;;;;;;20.23;nan;-24379.84;5030591;28;20167;-67
2022/09/24 09:55:35;;;;;;;3.45;1.73;;;;;;;20.50;nan;-24387.06;5031076;28;20175;-70
2022/09/24 09:58:17;;;;;;;2.85;1.80;;;;;;;20.49;nan;-24386.94;5030784;28;20191;-69
2022/09/24 10:00:47;;;;;;;2.05;1.75;;;;;;;20.29;nan;-24381.50;5033422;28;20180;-69
2022/09/24 10:03:30;;;;;;;1.80;1.50;;;;;;;19.92;nan;-24371.22;5016617;28;20230;-68
2022/09/24 10:06:00;;;;;;;1.65;1.23;;;;;;;19.86;nan;-24369.56;5034776;28;20672;-66
2022/09/24 10:08:25;;;;;;;2.83;1.67;;;;;;;19.97;nan;-24372.50;5034755;28;20290;-66
2022/09/24 10:10:56;;;;;;;2.53;1.60;;;;;;;20.39;nan;-24384.03;5034530;28;20225;-67
2022/09/24 10:13:22;;;;;;;2.55;1.60;;;;;;;20.24;nan;-24380.00;5035382;28;20180;-67
2022/09/24 10:15:49;;;;;;;2.10;1.55;;;;;;;20.67;nan;-24391.94;5035324;28;20175;-68
2022/09/24 10:18:16;;;;;;;1.65;1.55;;;;;;;20.47;nan;-24386.38;5033985;28;20183;-67
2022/09/24 10:20:47;;;;;;;2.25;1.90;;;;;;;20.36;nan;-24383.31;5037424;28;20288;-65
2022/09/24 10:23:31;;;;;;;2.03;1.48;;;;;;;20.68;nan;-24392.06;5036219;28;20278;-67
2022/09/24 10:26:01;;;;;;;1.85;1.55;;;;;;;20.58;nan;-24389.28;5035015;28;20182;-67
2022/09/24 10:31:22;;;;;;;1.73;1.40;;;;;;;20.63;nan;-24390.69;5034212;28;20286;-67
2022/09/24 10:33:52;;;;;;;1.83;1.50;;;;;;;20.83;nan;-24396.22;5034754;28;20637;-68
2022/09/24 10:36:23;;;;;;;1.45;1.33;;;;;;;20.58;nan;-24389.44;5034381;28;20529;-69
2022/09/24 10:39:15;;;;;;;1.60;1.50;;;;;;;21.10;nan;-24403.56;5034069;28;20155;-67
2022/09/24 10:41:52;;;;;;;2.30;1.55;;;;;;;21.12;nan;-24404.13;5034933;28;20175;-66
2022/09/24 10:44:20;;;;;;;2.22;1.75;;;;;;;20.86;nan;-24396.91;5034110;28;20175;-69
2022/09/24 10:47:09;;;;;;;2.45;1.70;;;;;;;21.36;nan;-24410.78;5033494;28;20207;-67
2022/09/24 10:49:41;;;;;;;2.00;1.50;;;;;;;21.40;nan;-24411.75;5033926;28;20194;-69
2022/09/24 10:52:57;;;;;;;2.55;1.70;;;;;;;21.31;nan;-24409.28;5033705;28;20172;-68
2022/09/24 10:55:41;;;;;;;1.85;1.50;;;;;;;21.22;nan;-24406.78;4999589;28;20183;-69
2022/09/24 10:58:24;;;;;;;2.40;1.70;;;;;;;21.03;nan;-24401.78;5041882;28;20179;-67
2022/09/24 11:01:13;;;;;;;2.40;1.58;;;;;;;21.21;nan;-24406.50;5026328;28;20183;-67
2022/09/24 11:04:18;;;;;;;2.95;1.73;;;;;;;21.46;nan;-24413.44;5013572;28;20243;-69
2022/09/24 11:07:05;;;;;;;2.03;1.67;;;;;;;21.66;nan;-24418.97;5013490;28;20172;-66
2022/09/24 11:09:57;;;;;;;2.28;1.55;;;;;;;21.91;nan;-24425.75;5013275;28;20172;-68
2022/09/24 11:13:01;;;;;;;2.20;1.60;;;;;;;21.99;nan;-24428.13;5012584;28;20190;-69
2022/09/24 11:15:29;;;;;;;2.35;1.73;;;;;;;22.25;nan;-24435.16;5019473;28;20206;-68
2022/09/24 11:18:25;;;;;;;2.13;1.60;;;;;;;21.95;nan;-24426.88;5053301;28;20171;-70
2022/09/24 11:21:06;;;;;;;1.73;1.50;;;;;;;22.21;nan;-24433.94;5053575;28;20171;-68
2022/09/24 11:24:15;;;;;;;1.42;1.27;;;;;;;21.57;nan;-24416.47;5053735;28;20622;-68
2022/09/24 11:26:59;;;;;;;1.95;1.55;;;;;;;21.40;nan;-24411.91;5011052;28;20617;-67
2022/09/24 11:29:43;;;;;;;2.00;1.65;;;;;;;21.75;nan;-24421.47;5024871;28;20160;-63
2022/09/24 11:32:27;;;;;;;1.80;1.60;;;;;;;21.95;nan;-24427.00;5046660;28;20260;-71
2022/09/24 11:34:52;;;;;;;2.78;1.80;;;;;;;21.95;nan;-24427.00;5053292;28;20171;-68
2022/09/24 11:37:29;;;;;;;2.58;1.60;;;;;;;22.02;nan;-24428.94;5053331;28;20177;-67
2022/09/24 11:40:11;;;;;;;1.83;1.42;;;;;;;21.32;nan;-24409.53;5052979;28;20209;-69
2022/09/24 11:42:52;;;;;;;1.67;1.40;;;;;;;21.48;nan;-24413.97;5034760;28;20183;-67
2022/09/24 11:45:35;;;;;;;1.73;1.58;;;;;;;21.29;nan;-24408.84;5052864;28;20166;-66
2022/09/24 11:48:01;;;;;;;1.77;1.60;;;;;;;21.30;nan;-24409.00;5044830;28;20575;-66
2022/09/24 11:50:48;;;;;;;1.40;1.30;;;;;;;21.22;nan;-24406.78;5032834;28;20199;-68
2022/09/24 11:54:01;;;;;;;1.67;1.38;;;;;;;21.52;nan;-24415.09;5032584;28;20623;-67
2022/09/24 11:56:50;;;;;;;3.60;1.77;;;;;;;21.79;nan;-24422.56;5010615;28;20191;-69
2022/09/24 11:59:30;;;;;;;2.35;1.70;;;;;;;22.02;nan;-24428.94;5010191;28;20233;-67
2022/09/24 12:02:10;;;;;;;1.45;1.35;;;;;;;22.12;nan;-24431.56;5022578;28;20198;-68
2022/09/24 12:04:49;;;;;;;2.47;1.50;;;;;;;22.36;nan;-24438.22;5032260;28;20172;-66
2022/09/24 12:07:23;;;;;;;1.55;1.45;;;;;;;22.34;nan;-24437.66;5032788;28;20236;-69
2022/09/24 12:09:57;;;;;;;2.35;1.75;;;;;;;22.50;nan;-24441.94;5032598;28;20187;-68
2022/09/24 12:12:32;;;;;;;2.70;1.65;;;;;;;22.75;nan;-24448.88;5032667;28;20244;-68
2022/09/24 12:15:04;;;;;;;1.67;1.45;;;;;;;22.47;nan;-24441.13;5032994;28;20159;-69
2022/09/24 12:18:05;;;;;;;1.33;1.23;;;;;;;22.53;nan;-24442.78;5037524;28;20253;-70